Weather at Nevatim Air Base

Public forecast

Using degrees Celsius for public forecast. Weather courtesy of forecast.io.

Closest aviation weather report (METAR) to Nevatim Air Base

Closest report is Ben Gurion International Airport, 48.6 nm (90.1 km) N.

2024/02/25 04:20 (retrieved 38 minutes ago)

LLBG 250420Z VRB02KT 5000 BR SCT033 10/09 Q1021 BECMG 7000

Closest aviation forecast (TAF) to Nevatim Air Base

Forecast is more than 6 hours old.

Closest forecast is Beirut Rafic Hariri International Airport, 158.7 nm (293.9 km) N.

2024/02/24 18:02 (retrieved 11 hours ago)

TAF OLBA 241600Z 2418/2524 29010KT 8000 SCT070 BECMG 2421/2424 03005KT BECMG 2503/2506 VRB02KT TEMPO 2418/2506 5000 BR